Time;durP1;ratioP1;P1;durP2;ratioP2;P2;SDS_P1;SDS_P2;PMS_P1;PMS_P2;Temp;Humidity;BMP_temperature;BMP_pressure;BME280_temperature;BME280_humidity;BME280_pressure;Samples;Min_cycle;Max_cycle;Signal;HPM_P1;HPM_P2
2022/03/03 16:48:45;;;;;;;17.30;7.80;;;6.50;86.90;;;7.20;51.04;98073.50;5107413;27;20720;-75
2022/03/03 16:51:13;;;;;;;9.10;4.60;;;6.50;88.20;;;7.14;50.86;98067.19;5088796;28;20468;-75
2022/03/03 16:53:47;;;;;;;8.70;5.17;;;6.40;87.20;;;7.16;51.66;98074.81;5087542;28;20447;-75
2022/03/03 16:56:16;;;;;;;8.03;4.73;;;6.40;87.70;;;7.12;51.53;98069.13;5091202;28;20496;-75
2022/03/03 16:58:45;;;;;;;7.07;4.37;;;6.40;87.50;;;7.11;51.37;98071.91;5089942;28;20475;-75
2022/03/03 17:01:15;;;;;;;5.50;3.77;;;6.50;87.40;;;7.06;51.22;98077.59;5091694;28;20466;-75
2022/03/03 17:03:45;;;;;;;6.50;4.60;;;6.40;86.40;;;7.04;51.26;98088.16;5090192;28;20733;-75
2022/03/03 17:06:14;;;;;;;8.90;4.10;;;6.30;86.10;;;7.01;51.55;98087.69;5089812;28;20462;-75
2022/03/03 17:08:43;;;;;;;6.60;4.17;;;6.20;88.60;;;6.96;51.63;98097.75;5083909;28;20487;-75
2022/03/03 17:11:12;;;;;;;7.10;3.90;;;6.20;88.80;;;6.90;51.97;98098.41;5090398;28;20855;-75
2022/03/03 17:13:41;;;;;;;8.43;5.10;;;6.20;88.50;;;6.85;52.74;98098.88;5082934;28;21263;-75
2022/03/03 17:16:10;;;;;;;9.63;4.53;;;6.20;88.50;;;6.78;51.72;98090.09;5084723;28;20459;-78
2022/03/03 17:18:39;;;;;;;11.67;5.90;;;6.20;88.10;;;6.70;51.55;98097.09;5087687;28;20850;-75
2022/03/03 17:21:10;;;;;;;5.80;3.60;;;6.20;87.10;;;6.63;51.98;98103.91;5086290;28;20932;-74
2022/03/03 17:23:39;;;;;;;7.00;4.13;;;5.90;87.60;;;6.57;51.67;98108.75;5075056;28;21229;-75
2022/03/03 17:26:07;;;;;;;12.20;4.70;;;6.00;87.40;;;6.51;51.27;98100.78;5081768;28;21033;-75
2022/03/03 17:28:36;;;;;;;7.10;4.67;;;5.90;87.00;;;6.47;52.00;98107.28;5083651;28;20552;-74
2022/03/03 17:31:05;;;;;;;8.83;3.97;;;5.70;88.40;;;6.40;53.15;98114.91;5086742;28;20520;-75
2022/03/03 17:33:33;;;;;;;7.60;4.97;;;5.60;90.90;;;6.33;55.22;98115.69;5086706;28;20858;-74
2022/03/03 17:36:05;;;;;;;7.03;3.93;;;5.40;91.90;;;6.29;55.82;98117.78;5082157;28;20463;-75
2022/03/03 17:38:35;;;;;;;8.20;5.07;;;5.30;91.20;;;6.07;56.87;98118.38;5081239;28;20507;-74
2022/03/03 17:41:03;;;;;;;12.07;5.33;;;5.20;92.10;;;6.00;58.18;98119.97;5080068;28;20466;-74
2022/03/03 17:43:32;;;;;;;7.80;5.50;;;5.10;92.70;;;5.87;58.83;98129.94;5081465;28;20493;-75
2022/03/03 17:46:02;;;;;;;10.17;6.00;;;4.90;93.10;;;5.83;58.91;98129.41;5078031;28;20612;-75
2022/03/03 17:48:33;;;;;;;10.53;5.80;;;4.90;92.20;;;5.78;58.18;98133.44;5081777;28;20557;-75
2022/03/03 17:51:06;;;;;;;9.50;5.33;;;4.90;92.50;;;5.69;58.46;98126.59;5085390;28;20557;-75
2022/03/03 17:53:36;;;;;;;7.53;4.90;;;4.80;92.10;;;5.56;59.27;98127.00;5090144;28;21025;-75
2022/03/03 17:56:06;;;;;;;15.63;4.93;;;4.70;92.80;;;5.48;59.31;98134.75;5088872;28;20958;-75
2022/03/03 17:58:34;;;;;;;7.50;5.30;;;4.80;92.40;;;5.40;60.76;98132.91;5083223;28;20453;-75
2022/03/03 18:01:03;;;;;;;7.03;5.13;;;4.50;93.60;;;5.35;61.16;98136.91;5074909;28;20552;-75
2022/03/03 18:03:35;;;;;;;11.00;4.80;;;4.60;93.10;;;5.26;62.23;98140.44;5075345;28;20488;-75
2022/03/03 18:06:05;;;;;;;7.80;5.13;;;4.40;93.30;;;5.20;61.74;98146.22;5073756;28;20543;-75
2022/03/03 18:08:36;;;;;;;8.97;5.87;;;4.40;92.80;;;5.16;61.67;98145.72;5075489;28;21100;-75
2022/03/03 18:11:05;;;;;;;9.67;5.80;;;4.30;92.90;;;5.04;61.72;98150.31;5074340;28;20451;-74
2022/03/03 18:13:34;;;;;;;10.60;5.70;;;4.30;93.10;;;5.00;62.23;98148.97;5075236;28;20466;-75
2022/03/03 18:16:03;;;;;;;11.43;5.27;;;4.30;93.00;;;4.91;62.64;98155.06;5075142;28;20877;-75
2022/03/03 18:18:32;;;;;;;11.13;5.90;;;4.10;93.70;;;4.90;63.75;98157.78;5073158;28;20471;-75
2022/03/03 18:21:00;;;;;;;9.60;6.03;;;4.00;93.60;;;4.79;63.49;98163.22;5075332;28;20970;-75
2022/03/03 18:23:29;;;;;;;8.37;5.10;;;4.10;93.60;;;4.77;64.60;98160.75;5075486;28;20776;-75
2022/03/03 18:26:00;;;;;;;8.73;5.63;;;3.80;94.30;;;4.64;64.97;98165.47;5072891;28;20820;-75
2022/03/03 18:28:28;;;;;;;7.03;5.67;;;3.80;94.10;;;4.59;66.78;98162.50;5071702;28;20575;-75
2022/03/03 18:30:57;;;;;;;9.13;5.87;;;3.60;95.00;;;4.50;66.11;98156.44;5076302;28;20453;-75
2022/03/03 18:33:25;;;;;;;11.33;6.57;;;3.80;93.90;;;4.36;66.67;98164.72;5075603;28;20530;-75
2022/03/03 18:35:55;;;;;;;12.60;6.97;;;3.60;94.40;;;4.32;66.72;98160.78;5067778;28;20486;-74
2022/03/03 18:38:26;;;;;;;13.60;8.20;;;3.60;94.30;;;4.23;67.54;98160.84;5057577;28;20467;-75
2022/03/03 18:40:57;;;;;;;17.87;7.40;;;3.40;94.60;;;4.18;68.65;98174.19;5063834;28;20463;-75
2022/03/03 18:43:28;;;;;;;8.50;5.67;;;3.30;95.10;;;4.18;69.13;98169.03;5049238;28;20468;-79
2022/03/03 18:45:58;;;;;;;9.00;5.70;;;3.30;95.20;;;4.10;69.34;98171.50;5048358;28;20557;-79
2022/03/03 18:48:27;;;;;;;12.53;6.20;;;3.20;95.00;;;4.04;70.93;98172.06;5043896;28;21018;-80
2022/03/03 18:50:56;;;;;;;9.00;5.23;;;3.10;95.70;;;3.97;70.74;98173.59;5042162;28;20480;-79
2022/03/03 18:53:25;;;;;;;14.23;5.67;;;3.10;95.30;;;3.93;71.95;98178.25;5045875;28;20618;-79
2022/03/03 18:55:53;;;;;;;12.67;6.50;;;3.00;95.80;;;3.89;73.25;98178.66;5045601;28;20546;-79
2022/03/03 18:58:23;;;;;;;8.80;5.40;;;2.90;96.10;;;3.88;72.76;98182.22;5045738;28;20460;-79
2022/03/03 19:00:53;;;;;;;8.47;6.17;;;2.90;95.80;;;3.76;74.69;98188.50;5045752;28;20578;-79
2022/03/03 19:03:22;;;;;;;11.07;5.90;;;2.70;96.70;;;3.74;76.20;98190.44;5045181;28;20456;-79
2022/03/03 19:05:56;;;;;;;12.50;6.30;;;2.80;97.00;;;3.69;75.58;98182.28;5042801;28;20487;-79
2022/03/03 19:08:40;;;;;;;11.50;5.77;;;2.60;96.20;;;3.64;77.43;98200.81;5042646;28;20529;-79
2022/03/03 19:11:09;;;;;;;9.00;5.53;;;2.60;97.00;;;3.57;77.37;98194.56;5045682;28;21126;-79
2022/03/03 19:13:38;;;;;;;7.93;5.43;;;2.50;96.80;;;3.52;77.29;98201.91;5043120;28;20476;-78
2022/03/03 19:16:08;;;;;;;8.27;5.67;;;2.50;96.90;;;3.45;77.95;98204.22;5041020;28;20777;-79
2022/03/03 19:18:36;;;;;;;12.13;6.70;;;2.40;96.90;;;3.40;78.70;98197.88;5043703;28;20461;-80
2022/03/03 19:21:05;;;;;;;16.43;6.40;;;2.40;96.90;;;3.36;76.94;98207.66;5044119;28;20852;-79
2022/03/03 19:23:34;;;;;;;17.10;5.80;;;2.50;96.70;;;3.34;78.55;98213.91;5043005;28;21559;-80
2022/03/03 19:26:04;;;;;;;7.37;5.53;;;2.40;96.90;;;3.33;78.72;98212.28;5044297;28;20471;-79
2022/03/03 19:28:33;;;;;;;11.00;6.13;;;2.30;97.10;;;3.21;79.18;98203.84;5042589;28;20482;-79
2022/03/03 19:31:02;;;;;;;9.90;6.03;;;2.20;97.10;;;3.14;79.50;98207.13;5042755;28;20466;-80
2022/03/03 19:36:19;;;;;;;12.10;6.00;;;2.20;96.00;;;3.13;77.80;98211.47;5048053;28;20455;-79
2022/03/03 19:38:47;;;;;;;22.73;6.07;;;2.20;96.20;;;3.04;79.38;98209.72;5043211;28;20952;-79
2022/03/03 19:41:16;;;;;;;8.70;5.70;;;2.10;97.40;;;3.02;80.11;98214.19;5043288;28;20472;-80
2022/03/03 19:43:45;;;;;;;11.10;6.13;;;2.10;96.80;;;2.92;80.32;98219.34;5043078;28;20483;-80
2022/03/03 19:46:14;;;;;;;10.97;6.00;;;2.00;97.00;;;2.89;79.76;98216.22;5039790;28;21048;-80
2022/03/03 19:48:44;;;;;;;7.40;5.40;;;2.00;96.80;;;2.86;81.42;98224.22;5064186;28;20491;-79
2022/03/03 19:51:12;;;;;;;10.40;6.50;;;1.90;97.40;;;2.84;81.51;98218.41;5064868;28;20478;-79
2022/03/03 19:53:41;;;;;;;9.40;5.50;;;1.90;97.50;;;2.83;80.36;98222.75;5061506;28;20615;-79
2022/03/03 19:56:10;;;;;;;7.40;5.67;;;2.10;96.70;;;2.82;79.78;98221.09;5063126;28;20472;-80
2022/03/03 19:58:39;;;;;;;8.00;5.47;;;2.00;96.00;;;2.83;79.01;98222.75;5061532;28;20906;-79
2022/03/03 20:01:08;;;;;;;11.87;5.83;;;1.90;96.20;;;2.72;80.09;98225.44;5062197;28;20483;-81
2022/03/03 20:03:37;;;;;;;13.70;6.07;;;1.70;97.20;;;2.66;82.96;98222.56;5063225;28;20469;-78
2022/03/03 20:06:08;;;;;;;10.60;5.90;;;1.70;98.20;;;2.68;82.64;98220.66;5074473;28;20481;-79
2022/03/03 20:11:19;;;;;;;10.80;6.37;;;1.50;98.10;;;2.54;83.32;98221.84;5073750;28;20530;-78
2022/03/03 20:13:48;;;;;;;9.10;5.13;;;1.60;97.30;;;2.48;84.07;98225.78;5074197;28;20562;-78
2022/03/03 20:16:16;;;;;;;10.20;5.90;;;1.50;97.70;;;2.49;83.81;98229.19;5069655;28;20446;-78
2022/03/03 20:18:46;;;;;;;13.50;6.93;;;1.50;97.60;;;2.38;85.27;98234.47;5072781;28;20458;-79
2022/03/03 20:21:16;;;;;;;7.37;5.73;;;1.40;98.50;;;2.36;85.31;98236.38;5066844;28;21952;-79
2022/03/03 20:23:45;;;;;;;9.97;5.80;;;1.40;97.80;;;2.36;84.53;98239.72;5062535;28;20493;-79
2022/03/03 20:26:14;;;;;;;11.10;6.13;;;1.50;97.70;;;2.28;84.35;98246.50;5065875;28;20930;-79
2022/03/03 20:28:42;;;;;;;15.73;6.40;;;1.50;98.20;;;2.14;86.68;98250.25;5064480;28;21160;-80
2022/03/03 20:31:11;;;;;;;13.30;6.43;;;1.20;98.40;;;2.18;85.90;98246.47;5066689;28;20478;-78
2022/03/03 20:33:40;;;;;;;10.00;6.00;;;1.20;98.00;;;2.19;86.02;98255.81;5070041;28;20799;-79
2022/03/03 20:36:09;;;;;;;14.90;6.43;;;1.30;97.80;;;2.18;86.28;98249.06;5071902;28;21004;-79
2022/03/03 20:38:39;;;;;;;9.70;5.43;;;1.30;98.20;;;2.13;86.07;98246.03;5072769;28;20975;-79
2022/03/03 20:41:08;;;;;;;12.07;6.40;;;1.20;98.00;;;2.10;86.40;98248.06;5070683;28;20892;-79
2022/03/03 20:43:37;;;;;;;8.20;5.33;;;1.20;98.40;;;2.09;86.63;98252.38;5073880;28;20536;-79
2022/03/03 20:46:06;;;;;;;9.03;6.03;;;1.10;98.20;;;2.08;87.89;98257.69;5073537;28;20829;-78
2022/03/03 20:48:37;;;;;;;12.40;6.90;;;1.10;99.00;;;2.05;87.92;98253.59;5073216;28;20887;-79
2022/03/03 20:51:06;;;;;;;15.13;6.90;;;1.00;98.80;;;1.95;88.97;98263.84;5073132;28;20464;-79
2022/03/03 20:53:34;;;;;;;9.03;5.87;;;1.00;98.90;;;1.95;88.28;98263.03;5074131;28;20979;-78
2022/03/03 20:56:06;;;;;;;12.13;6.07;;;1.00;98.60;;;1.90;88.65;98260.03;5074568;28;20915;-79
2022/03/03 20:58:35;;;;;;;11.97;6.30;;;1.00;99.10;;;1.88;89.06;98267.06;5074128;28;20522;-79
2022/03/03 21:01:04;;;;;;;11.13;6.37;;;0.80;98.70;;;1.90;88.78;98272.94;5070974;28;20485;-80
2022/03/03 21:03:33;;;;;;;10.50;6.60;;;0.80;99.20;;;1.90;89.14;98265.19;5071720;28;20491;-78
2022/03/03 21:06:03;;;;;;;8.60;5.80;;;0.80;99.00;;;1.91;89.21;98266.81;5070717;28;20848;-79
2022/03/03 21:08:31;;;;;;;11.07;5.87;;;0.90;98.90;;;1.82;88.92;98270.97;5075480;28;20539;-79
2022/03/03 21:11:00;;;;;;;13.17;6.10;;;0.80;99.00;;;1.76;89.91;98270.69;5073765;28;20503;-79
2022/03/03 21:13:30;;;;;;;10.07;5.90;;;0.70;99.40;;;1.73;90.45;98269.19;5073247;28;20463;-79
2022/03/03 21:15:59;;;;;;;10.40;5.77;;;0.70;99.40;;;1.75;90.85;98272.44;5072928;28;20449;-79
2022/03/03 21:18:30;;;;;;;11.80;5.77;;;0.80;99.10;;;1.71;89.56;98271.03;5068443;28;20478;-79
2022/03/03 21:20:58;;;;;;;10.40;6.63;;;0.70;98.80;;;1.69;90.36;98270.38;5069715;28;20470;-79
2022/03/03 21:23:27;;;;;;;10.20;6.07;;;0.70;99.10;;;1.60;91.17;98275.47;5070059;28;20506;-79
2022/03/03 21:26:00;;;;;;;12.23;6.23;;;0.50;99.60;;;1.59;91.46;98281.56;5067651;28;20841;-79
2022/03/03 21:28:31;;;;;;;9.07;5.23;;;0.60;99.30;;;1.59;91.01;98281.56;5069351;28;20462;-79
2022/03/03 21:31:00;;;;;;;11.87;6.53;;;0.70;99.10;;;1.58;91.57;98278.16;5074137;28;20523;-79
2022/03/03 21:33:30;;;;;;;11.83;6.37;;;0.60;99.90;;;1.58;91.47;98282.47;5074879;28;20850;-79
2022/03/03 21:35:59;;;;;;;14.07;6.70;;;0.60;99.00;;;1.57;91.53;98278.25;5076982;28;20965;-79
2022/03/03 21:38:28;;;;;;;9.07;6.03;;;0.60;99.30;;;1.51;91.45;98280.41;5072089;28;20462;-79
2022/03/03 21:40:57;;;;;;;11.83;5.80;;;0.50;99.40;;;1.46;92.13;98277.38;5073623;28;20472;-79
2022/03/03 21:43:26;;;;;;;9.90;5.90;;;0.40;99.60;;;1.48;91.50;98280.66;5072607;28;20467;-79
2022/03/03 21:45:56;;;;;;;23.97;5.87;;;0.50;99.20;;;1.39;91.75;98280.56;5072790;28;20470;-78
2022/03/03 21:48:25;;;;;;;13.60;6.90;;;0.40;99.20;;;1.43;91.21;98276.81;5072739;28;20479;-79
2022/03/03 21:50:54;;;;;;;9.20;6.37;;;0.40;99.00;;;1.41;90.72;98282.09;5077473;28;20503;-79
2022/03/03 21:53:23;;;;;;;12.30;6.93;;;0.50;99.20;;;1.35;90.59;98280.03;5078011;28;20444;-79
2022/03/03 21:55:51;;;;;;;10.80;6.60;;;0.50;99.30;;;1.36;90.89;98276.50;5073476;28;20515;-79
2022/03/03 21:58:22;;;;;;;10.30;6.03;;;0.50;98.90;;;1.35;90.84;98290.34;5074119;28;20467;-79
2022/03/03 22:00:52;;;;;;;9.33;6.00;;;0.60;98.80;;;1.34;90.58;98293.84;5071511;28;20521;-79
2022/03/03 22:03:24;;;;;;;10.87;6.50;;;0.50;98.60;;;1.29;90.33;98289.97;5071414;28;20451;-79
2022/03/03 22:05:53;;;;;;;14.10;7.03;;;0.50;98.80;;;1.27;90.10;98295.28;5072795;28;20458;-79
2022/03/03 22:08:23;;;;;;;9.73;5.90;;;0.50;98.70;;;1.25;90.40;98294.56;5069999;28;20554;-79
2022/03/03 22:10:52;;;;;;;10.03;6.20;;;0.40;98.70;;;1.29;90.38;98292.56;5070651;28;21001;-78
2022/03/03 22:13:21;;;;;;;12.83;5.83;;;0.40;99.00;;;1.24;89.46;98287.78;5074460;28;20456;-79
2022/03/03 22:15:52;;;;;;;9.90;7.23;;;0.50;98.60;;;1.23;90.52;98286.16;5071649;28;20520;-79
2022/03/03 22:18:23;;;;;;;13.53;6.50;;;0.40;98.80;;;1.19;90.45;98284.75;5072352;28;20470;-79
2022/03/03 22:20:54;;;;;;;11.57;6.50;;;0.40;98.80;;;1.14;90.53;98292.03;5067928;28;20484;-79
2022/03/03 22:23:23;;;;;;;9.57;5.73;;;0.40;98.60;;;1.09;90.40;98288.19;5070018;28;20521;-79
2022/03/03 22:25:52;;;;;;;9.10;6.03;;;0.40;98.60;;;1.11;90.51;98286.31;5077075;28;20528;-79
2022/03/03 22:28:21;;;;;;;10.20;6.13;;;0.40;98.80;;;1.11;90.66;98297.41;5071253;28;20466;-79
2022/03/03 22:30:50;;;;;;;11.93;5.53;;;0.30;98.80;;;1.09;90.76;98293.34;5068649;28;20483;-79
2022/03/03 22:33:20;;;;;;;10.43;6.23;;;0.30;98.80;;;1.07;90.96;98296.03;5071379;28;20554;-79
2022/03/03 22:35:50;;;;;;;15.50;7.20;;;0.20;99.00;;;1.06;91.23;98302.13;5075584;28;20472;-79
2022/03/03 22:38:18;;;;;;;9.90;6.70;;;0.20;98.90;;;1.02;90.95;98298.16;5069824;28;20468;-79
2022/03/03 22:40:49;;;;;;;13.63;6.63;;;0.10;98.80;;;1.05;90.86;98300.47;5069508;28;20462;-79
2022/03/03 22:43:18;;;;;;;9.67;6.50;;;0.20;98.90;;;1.04;90.96;98305.78;5071071;28;20463;-78
2022/03/03 22:45:47;;;;;;;9.43;5.63;;;0.20;99.00;;;1.01;92.54;98306.81;5071046;28;20469;-79
2022/03/03 22:48:15;;;;;;;12.03;6.50;;;0.00;99.70;;;0.91;92.85;98311.88;5067941;28;20479;-79
2022/03/03 22:53:33;;;;;;;13.13;7.43;;;0.00;99.90;;;0.92;92.93;98312.69;5069335;28;20550;-79
2022/03/03 22:56:02;;;;;;;17.90;7.03;;;0.20;99.40;;;0.91;92.66;98311.03;5069239;28;20470;-79
2022/03/03 22:58:32;;;;;;;8.23;5.40;;;0.10;99.50;;;0.83;93.20;98313.41;5065686;28;20523;-79
2022/03/03 23:01:20;;;;;;;16.53;6.20;;;-0.10;99.80;;;0.83;94.13;98308.28;5066730;28;20545;-79
2022/03/03 23:06:41;;;;;;;12.10;5.87;;;-0.20;99.90;;;0.81;95.08;98316.09;5065330;28;21031;-79
2022/03/03 23:09:11;;;;;;;13.67;6.00;;;-0.20;99.90;;;0.76;95.17;98313.09;5064686;28;20545;-79
2022/03/03 23:11:41;;;;;;;10.90;6.10;;;-0.20;99.90;;;0.71;95.64;98314.34;5067625;28;20886;-79
2022/03/03 23:14:10;;;;;;;11.83;5.33;;;-0.30;99.90;;;0.61;97.10;98326.28;5068702;28;20469;-79
2022/03/03 23:16:40;;;;;;;11.80;6.53;;;-0.50;99.90;;;0.67;96.31;98325.81;5063622;28;20464;-79
2022/03/03 23:19:10;;;;;;;10.50;6.20;;;-0.30;99.90;;;0.63;96.62;98330.38;5062691;28;20490;-79
2022/03/03 23:21:39;;;;;;;8.30;5.73;;;-0.30;99.90;;;0.57;96.86;98336.00;5065671;28;20462;-79
2022/03/03 23:24:11;;;;;;;11.97;5.80;;;-0.50;99.90;;;0.50;97.77;98343.38;5068004;28;20870;-79
2022/03/03 23:26:40;;;;;;;8.83;5.90;;;-0.60;99.90;;;0.50;97.53;98337.41;5073379;28;20460;-79
2022/03/03 23:29:09;;;;;;;8.87;5.50;;;-0.60;99.90;;;0.43;98.60;98333.66;5070189;28;20471;-81
2022/03/03 23:31:39;;;;;;;10.27;6.00;;;-0.70;99.90;;;0.46;98.42;98336.81;5074753;28;20541;-79
2022/03/03 23:34:08;;;;;;;13.33;6.03;;;-0.60;99.90;;;0.44;98.66;98343.84;5074605;28;20529;-79
2022/03/03 23:36:38;;;;;;;14.13;5.83;;;-0.60;99.90;;;0.40;98.32;98337.28;5074640;28;21023;-79
2022/03/03 23:39:07;;;;;;;10.37;6.67;;;-0.50;99.90;;;0.39;98.43;98339.97;5073099;28;20447;-79
2022/03/03 23:41:37;;;;;;;13.40;7.10;;;-0.60;99.90;;;0.44;98.63;98332.72;5067722;28;20518;-79
2022/03/03 23:44:06;;;;;;;9.80;6.57;;;-0.50;99.90;;;0.40;98.47;98336.47;5067350;28;20461;-79
2022/03/03 23:46:37;;;;;;;9.00;5.80;;;-0.50;99.90;;;0.37;99.15;98336.72;5065274;28;20971;-79
2022/03/03 23:49:07;;;;;;;15.80;6.87;;;-0.70;99.90;;;0.36;99.08;98330.75;5064959;28;20503;-79
2022/03/03 23:51:37;;;;;;;7.33;4.93;;;-0.60;99.90;;;0.37;99.08;98334.97;5064022;28;20511;-79
2022/03/03 23:54:06;;;;;;;9.70;6.00;;;-0.50;99.90;;;0.32;99.15;98334.47;5065112;28;20463;-79
2022/03/03 23:56:36;;;;;;;9.20;5.10;;;-0.60;99.90;;;0.35;98.55;98333.41;5064975;28;20504;-79
2022/03/03 23:59:05;;;;;;;11.83;5.90;;;-0.50;99.90;;;0.35;99.20;98335.97;5063406;28;20461;-79
